Jennings, Florida
Current Conditions -  °F | °C
As of 10:53 PM on Monday 22 Dec 2014 (Local Time) from KVLD Reporting Station
Haze Haze  
Wind Chill: 58°   Ceiling: 200
Heat Index: 58°   Visibility: 0.75mi
Dew Point: 58°   Wind: 3mph
Humidity: 100%   Direction: 120°ESE
Pressure: 29.91"   Gusts: NA
Location:  30.6°N, 83.1°W
Report Text: KVLD 230353Z 12003KT 3/4SM BR VV002 14/14 A2991 RMK AO2 SLP134 T01440144
Loading
Personal Weather Stations






























Interactive Weather Map New forecast layout! Learn more

10-Day Weather Forecast

Advertisements
Track Severe Weather on mobile